sensor_id;sensor_type;location;lat;lon;timestamp;P1;durP1;ratioP1;P2;durP2;ratioP2
42124;SDS011;27787;44.594;11.046;2023-05-07T00:02:17;10.77;;;7.53;;
42124;SDS011;27787;44.594;11.046;2023-05-07T00:05:01;15.30;;;7.30;;
42124;SDS011;27787;44.594;11.046;2023-05-07T00:07:46;19.23;;;12.23;;
42124;SDS011;27787;44.594;11.046;2023-05-07T00:10:30;17.80;;;10.30;;
42124;SDS011;27787;44.594;11.046;2023-05-07T00:13:14;13.35;;;8.95;;
42124;SDS011;27787;44.594;11.046;2023-05-07T00:15:58;15.90;;;10.68;;
42124;SDS011;27787;44.594;11.046;2023-05-07T00:18:42;17.58;;;11.85;;
42124;SDS011;27787;44.594;11.046;2023-05-07T00:21:28;18.27;;;12.25;;
42124;SDS011;27787;44.594;11.046;2023-05-07T00:24:13;20.00;;;13.05;;
42124;SDS011;27787;44.594;11.046;2023-05-07T00:26:57;21.23;;;12.27;;
42124;SDS011;27787;44.594;11.046;2023-05-07T00:29:41;20.20;;;13.23;;
42124;SDS011;27787;44.594;11.046;2023-05-07T00:32:25;15.93;;;12.10;;
42124;SDS011;27787;44.594;11.046;2023-05-07T00:35:09;18.08;;;12.68;;
42124;SDS011;27787;44.594;11.046;2023-05-07T00:37:53;19.55;;;12.35;;
42124;SDS011;27787;44.594;11.046;2023-05-07T00:40:37;18.30;;;12.43;;
42124;SDS011;27787;44.594;11.046;2023-05-07T00:43:21;20.65;;;13.65;;
42124;SDS011;27787;44.594;11.046;2023-05-07T00:46:05;17.80;;;12.77;;
42124;SDS011;27787;44.594;11.046;2023-05-07T00:48:49;16.63;;;11.98;;
42124;SDS011;27787;44.594;11.046;2023-05-07T00:51:34;17.73;;;11.80;;
42124;SDS011;27787;44.594;11.046;2023-05-07T00:54:19;16.48;;;10.50;;
42124;SDS011;27787;44.594;11.046;2023-05-07T00:57:03;16.40;;;11.38;;
42124;SDS011;27787;44.594;11.046;2023-05-07T00:59:48;18.75;;;12.07;;
42124;SDS011;27787;44.594;11.046;2023-05-07T01:02:32;14.90;;;10.68;;
42124;SDS011;27787;44.594;11.046;2023-05-07T01:05:17;19.67;;;11.65;;
42124;SDS011;27787;44.594;11.046;2023-05-07T01:08:03;18.23;;;11.57;;
42124;SDS011;27787;44.594;11.046;2023-05-07T01:10:49;16.55;;;11.10;;
42124;SDS011;27787;44.594;11.046;2023-05-07T01:13:35;17.88;;;11.80;;
42124;SDS011;27787;44.594;11.046;2023-05-07T01:19:05;17.35;;;11.57;;
42124;SDS011;27787;44.594;11.046;2023-05-07T01:21:51;17.50;;;11.30;;
42124;SDS011;27787;44.594;11.046;2023-05-07T01:24:41;18.63;;;11.40;;
42124;SDS011;27787;44.594;11.046;2023-05-07T01:27:27;18.38;;;11.70;;
42124;SDS011;27787;44.594;11.046;2023-05-07T01:30:11;18.45;;;12.38;;
42124;SDS011;27787;44.594;11.046;2023-05-07T01:32:57;15.80;;;11.13;;
42124;SDS011;27787;44.594;11.046;2023-05-07T01:35:46;16.75;;;11.43;;
42124;SDS011;27787;44.594;11.046;2023-05-07T01:38:32;20.38;;;12.63;;
42124;SDS011;27787;44.594;11.046;2023-05-07T01:41:17;21.80;;;13.88;;
42124;SDS011;27787;44.594;11.046;2023-05-07T01:44:02;19.48;;;12.27;;
42124;SDS011;27787;44.594;11.046;2023-05-07T01:46:48;28.90;;;13.60;;
42124;SDS011;27787;44.594;11.046;2023-05-07T01:49:33;25.48;;;14.52;;
42124;SDS011;27787;44.594;11.046;2023-05-07T01:52:17;22.88;;;14.60;;
42124;SDS011;27787;44.594;11.046;2023-05-07T01:55:01;20.73;;;15.02;;
42124;SDS011;27787;44.594;11.046;2023-05-07T01:57:45;22.85;;;14.93;;
42124;SDS011;27787;44.594;11.046;2023-05-07T02:00:31;22.53;;;16.13;;
42124;SDS011;27787;44.594;11.046;2023-05-07T02:03:15;26.25;;;16.25;;
42124;SDS011;27787;44.594;11.046;2023-05-07T02:06:11;24.73;;;15.80;;
42124;SDS011;27787;44.594;11.046;2023-05-07T02:08:57;28.55;;;17.02;;
42124;SDS011;27787;44.594;11.046;2023-05-07T02:11:42;26.10;;;16.97;;
42124;SDS011;27787;44.594;11.046;2023-05-07T02:14:26;25.10;;;16.27;;
42124;SDS011;27787;44.594;11.046;2023-05-07T02:17:10;20.60;;;14.48;;
42124;SDS011;27787;44.594;11.046;2023-05-07T02:19:55;20.05;;;14.00;;
42124;SDS011;27787;44.594;11.046;2023-05-07T02:22:39;19.92;;;13.98;;
42124;SDS011;27787;44.594;11.046;2023-05-07T02:25:24;21.45;;;14.65;;
42124;SDS011;27787;44.594;11.046;2023-05-07T02:28:09;21.53;;;14.17;;
42124;SDS011;27787;44.594;11.046;2023-05-07T02:31:13;24.95;;;12.98;;
42124;SDS011;27787;44.594;11.046;2023-05-07T02:33:58;23.17;;;14.23;;
42124;SDS011;27787;44.594;11.046;2023-05-07T02:36:42;20.10;;;12.65;;
42124;SDS011;27787;44.594;11.046;2023-05-07T02:39:29;21.13;;;12.65;;
42124;SDS011;27787;44.594;11.046;2023-05-07T02:42:14;21.07;;;13.13;;
42124;SDS011;27787;44.594;11.046;2023-05-07T02:44:58;20.52;;;12.95;;
42124;SDS011;27787;44.594;11.046;2023-05-07T02:47:43;19.50;;;12.23;;
42124;SDS011;27787;44.594;11.046;2023-05-07T02:50:27;19.10;;;12.35;;
42124;SDS011;27787;44.594;11.046;2023-05-07T02:53:12;17.65;;;11.25;;
42124;SDS011;27787;44.594;11.046;2023-05-07T02:55:57;19.30;;;12.27;;
42124;SDS011;27787;44.594;11.046;2023-05-07T02:58:42;17.98;;;11.32;;
42124;SDS011;27787;44.594;11.046;2023-05-07T03:01:27;21.58;;;11.98;;
42124;SDS011;27787;44.594;11.046;2023-05-07T03:04:21;18.13;;;11.40;;
42124;SDS011;27787;44.594;11.046;2023-05-07T03:07:05;23.08;;;13.10;;
42124;SDS011;27787;44.594;11.046;2023-05-07T03:09:49;20.80;;;12.82;;
42124;SDS011;27787;44.594;11.046;2023-05-07T03:12:34;18.25;;;11.93;;
42124;SDS011;27787;44.594;11.046;2023-05-07T03:15:18;22.92;;;13.05;;
42124;SDS011;27787;44.594;11.046;2023-05-07T03:18:02;20.23;;;12.95;;
42124;SDS011;27787;44.594;11.046;2023-05-07T03:20:48;22.13;;;12.93;;
42124;SDS011;27787;44.594;11.046;2023-05-07T03:23:34;20.75;;;11.57;;
42124;SDS011;27787;44.594;11.046;2023-05-07T03:26:18;22.48;;;13.02;;
42124;SDS011;27787;44.594;11.046;2023-05-07T03:29:03;20.15;;;13.45;;
42124;SDS011;27787;44.594;11.046;2023-05-07T03:31:48;19.52;;;12.07;;
42124;SDS011;27787;44.594;11.046;2023-05-07T03:34:32;22.80;;;13.07;;
42124;SDS011;27787;44.594;11.046;2023-05-07T03:37:17;19.13;;;13.53;;
42124;SDS011;27787;44.594;11.046;2023-05-07T03:40:02;21.35;;;13.35;;
42124;SDS011;27787;44.594;11.046;2023-05-07T03:42:51;21.50;;;13.10;;
42124;SDS011;27787;44.594;11.046;2023-05-07T03:45:38;21.88;;;13.63;;
42124;SDS011;27787;44.594;11.046;2023-05-07T03:48:30;25.30;;;15.30;;
42124;SDS011;27787;44.594;11.046;2023-05-07T03:51:16;28.98;;;16.48;;
42124;SDS011;27787;44.594;11.046;2023-05-07T03:54:01;27.13;;;16.27;;
42124;SDS011;27787;44.594;11.046;2023-05-07T03:56:47;29.40;;;15.60;;
42124;SDS011;27787;44.594;11.046;2023-05-07T04:02:17;28.77;;;16.95;;
42124;SDS011;27787;44.594;11.046;2023-05-07T04:05:01;28.58;;;16.75;;
42124;SDS011;27787;44.594;11.046;2023-05-07T04:07:46;27.08;;;17.20;;
42124;SDS011;27787;44.594;11.046;2023-05-07T04:10:33;26.58;;;16.85;;
42124;SDS011;27787;44.594;11.046;2023-05-07T04:13:21;26.65;;;15.43;;
42124;SDS011;27787;44.594;11.046;2023-05-07T04:16:06;31.13;;;17.25;;
42124;SDS011;27787;44.594;11.046;2023-05-07T04:18:53;24.70;;;15.32;;
42124;SDS011;27787;44.594;11.046;2023-05-07T04:21:37;26.58;;;17.08;;
42124;SDS011;27787;44.594;11.046;2023-05-07T04:24:22;26.55;;;17.45;;
42124;SDS011;27787;44.594;11.046;2023-05-07T04:27:07;27.88;;;17.33;;
42124;SDS011;27787;44.594;11.046;2023-05-07T04:29:51;33.20;;;17.95;;
42124;SDS011;27787;44.594;11.046;2023-05-07T04:32:36;28.10;;;17.08;;
42124;SDS011;27787;44.594;11.046;2023-05-07T04:35:21;32.10;;;18.77;;
42124;SDS011;27787;44.594;11.046;2023-05-07T04:38:06;28.00;;;18.70;;
42124;SDS011;27787;44.594;11.046;2023-05-07T04:40:50;37.55;;;19.30;;
42124;SDS011;27787;44.594;11.046;2023-05-07T04:43:39;32.50;;;19.05;;
42124;SDS011;27787;44.594;11.046;2023-05-07T04:46:24;31.20;;;20.50;;
42124;SDS011;27787;44.594;11.046;2023-05-07T04:49:09;34.13;;;20.65;;
42124;SDS011;27787;44.594;11.046;2023-05-07T04:51:55;32.83;;;19.30;;
42124;SDS011;27787;44.594;11.046;2023-05-07T04:54:41;32.75;;;20.60;;
42124;SDS011;27787;44.594;11.046;2023-05-07T04:57:26;34.00;;;21.90;;
42124;SDS011;27787;44.594;11.046;2023-05-07T05:00:11;36.33;;;21.75;;
42124;SDS011;27787;44.594;11.046;2023-05-07T05:02:59;34.35;;;21.35;;
42124;SDS011;27787;44.594;11.046;2023-05-07T05:05:46;34.33;;;19.52;;
42124;SDS011;27787;44.594;11.046;2023-05-07T05:08:33;32.35;;;20.02;;
42124;SDS011;27787;44.594;11.046;2023-05-07T05:11:19;30.02;;;18.70;;
42124;SDS011;27787;44.594;11.046;2023-05-07T05:14:05;30.63;;;19.50;;
42124;SDS011;27787;44.594;11.046;2023-05-07T05:16:50;33.58;;;18.42;;
42124;SDS011;27787;44.594;11.046;2023-05-07T05:19:35;35.50;;;19.02;;
42124;SDS011;27787;44.594;11.046;2023-05-07T05:22:19;30.13;;;18.63;;
42124;SDS011;27787;44.594;11.046;2023-05-07T05:25:03;32.35;;;17.63;;
42124;SDS011;27787;44.594;11.046;2023-05-07T05:27:48;33.13;;;17.98;;
42124;SDS011;27787;44.594;11.046;2023-05-07T05:30:33;25.63;;;17.60;;
42124;SDS011;27787;44.594;11.046;2023-05-07T05:33:17;28.70;;;16.92;;
42124;SDS011;27787;44.594;11.046;2023-05-07T05:36:01;24.73;;;15.85;;
42124;SDS011;27787;44.594;11.046;2023-05-07T05:38:46;24.08;;;15.85;;
42124;SDS011;27787;44.594;11.046;2023-05-07T05:41:31;24.63;;;16.27;;
42124;SDS011;27787;44.594;11.046;2023-05-07T05:44:16;36.17;;;21.38;;
42124;SDS011;27787;44.594;11.046;2023-05-07T05:47:01;29.55;;;18.48;;
42124;SDS011;27787;44.594;11.046;2023-05-07T05:49:47;28.83;;;17.00;;
42124;SDS011;27787;44.594;11.046;2023-05-07T05:52:33;23.05;;;16.00;;
42124;SDS011;27787;44.594;11.046;2023-05-07T05:55:18;21.65;;;14.73;;
42124;SDS011;27787;44.594;11.046;2023-05-07T05:58:04;24.08;;;16.10;;
42124;SDS011;27787;44.594;11.046;2023-05-07T06:00:52;25.02;;;14.68;;
42124;SDS011;27787;44.594;11.046;2023-05-07T06:03:39;23.17;;;15.00;;
42124;SDS011;27787;44.594;11.046;2023-05-07T06:06:30;22.45;;;13.63;;
42124;SDS011;27787;44.594;11.046;2023-05-07T06:12:02;18.88;;;12.35;;
42124;SDS011;27787;44.594;11.046;2023-05-07T06:14:48;20.13;;;12.05;;
42124;SDS011;27787;44.594;11.046;2023-05-07T06:17:34;23.83;;;11.45;;
42124;SDS011;27787;44.594;11.046;2023-05-07T06:20:19;18.00;;;11.70;;
42124;SDS011;27787;44.594;11.046;2023-05-07T06:23:03;17.33;;;11.43;;
42124;SDS011;27787;44.594;11.046;2023-05-07T06:25:50;18.50;;;11.23;;
42124;SDS011;27787;44.594;11.046;2023-05-07T06:28:37;16.77;;;11.63;;
42124;SDS011;27787;44.594;11.046;2023-05-07T06:31:29;21.23;;;10.88;;
42124;SDS011;27787;44.594;11.046;2023-05-07T06:34:26;18.10;;;11.45;;
42124;SDS011;27787;44.594;11.046;2023-05-07T06:37:10;20.98;;;12.73;;
42124;SDS011;27787;44.594;11.046;2023-05-07T06:40:13;20.15;;;12.00;;
42124;SDS011;27787;44.594;11.046;2023-05-07T06:43:00;20.73;;;13.25;;
42124;SDS011;27787;44.594;11.046;2023-05-07T06:46:02;21.05;;;11.85;;
42124;SDS011;27787;44.594;11.046;2023-05-07T06:48:47;18.25;;;10.88;;
42124;SDS011;27787;44.594;11.046;2023-05-07T06:51:32;14.68;;;10.23;;
42124;SDS011;27787;44.594;11.046;2023-05-07T06:54:20;17.80;;;9.77;;
42124;SDS011;27787;44.594;11.046;2023-05-07T06:57:04;14.43;;;9.40;;
42124;SDS011;27787;44.594;11.046;2023-05-07T06:59:49;20.83;;;10.50;;
42124;SDS011;27787;44.594;11.046;2023-05-07T07:02:34;19.13;;;10.20;;
42124;SDS011;27787;44.594;11.046;2023-05-07T07:05:18;20.25;;;11.27;;
42124;SDS011;27787;44.594;11.046;2023-05-07T07:08:03;16.25;;;10.60;;
42124;SDS011;27787;44.594;11.046;2023-05-07T07:10:47;16.15;;;11.27;;
42124;SDS011;27787;44.594;11.046;2023-05-07T07:13:32;17.40;;;10.87;;
42124;SDS011;27787;44.594;11.046;2023-05-07T07:16:16;22.08;;;12.98;;
42124;SDS011;27787;44.594;11.046;2023-05-07T07:19:07;19.92;;;11.65;;
42124;SDS011;27787;44.594;11.046;2023-05-07T07:21:52;24.00;;;12.82;;
42124;SDS011;27787;44.594;11.046;2023-05-07T07:24:36;23.30;;;13.88;;
42124;SDS011;27787;44.594;11.046;2023-05-07T07:27:23;25.55;;;12.85;;
42124;SDS011;27787;44.594;11.046;2023-05-07T07:30:07;19.35;;;12.70;;
42124;SDS011;27787;44.594;11.046;2023-05-07T07:32:55;20.77;;;12.30;;
42124;SDS011;27787;44.594;11.046;2023-05-07T07:35:44;20.42;;;12.90;;
42124;SDS011;27787;44.594;11.046;2023-05-07T07:38:28;18.00;;;12.27;;
42124;SDS011;27787;44.594;11.046;2023-05-07T07:41:13;29.45;;;15.43;;
42124;SDS011;27787;44.594;11.046;2023-05-07T07:43:57;24.08;;;11.95;;
42124;SDS011;27787;44.594;11.046;2023-05-07T07:46:42;16.90;;;11.63;;
42124;SDS011;27787;44.594;11.046;2023-05-07T07:49:27;22.95;;;12.27;;
42124;SDS011;27787;44.594;11.046;2023-05-07T07:52:13;21.40;;;12.52;;
42124;SDS011;27787;44.594;11.046;2023-05-07T07:57:43;17.40;;;12.10;;
42124;SDS011;27787;44.594;11.046;2023-05-07T08:00:27;20.15;;;12.30;;
42124;SDS011;27787;44.594;11.046;2023-05-07T08:03:14;19.35;;;11.95;;
42124;SDS011;27787;44.594;11.046;2023-05-07T08:06:03;18.33;;;12.02;;
42124;SDS011;27787;44.594;11.046;2023-05-07T08:08:51;20.20;;;11.90;;
42124;SDS011;27787;44.594;11.046;2023-05-07T08:11:35;17.57;;;11.00;;
42124;SDS011;27787;44.594;11.046;2023-05-07T08:14:21;23.23;;;10.75;;
42124;SDS011;27787;44.594;11.046;2023-05-07T08:17:06;20.65;;;12.13;;
42124;SDS011;27787;44.594;11.046;2023-05-07T08:19:51;24.63;;;13.35;;
42124;SDS011;27787;44.594;11.046;2023-05-07T08:22:36;17.48;;;12.00;;
42124;SDS011;27787;44.594;11.046;2023-05-07T08:25:21;20.67;;;13.07;;
42124;SDS011;27787;44.594;11.046;2023-05-07T08:28:05;19.85;;;12.65;;
42124;SDS011;27787;44.594;11.046;2023-05-07T08:30:49;20.83;;;13.38;;
42124;SDS011;27787;44.594;11.046;2023-05-07T08:33:34;20.88;;;13.07;;
42124;SDS011;27787;44.594;11.046;2023-05-07T08:36:18;23.73;;;13.85;;
42124;SDS011;27787;44.594;11.046;2023-05-07T08:39:03;20.75;;;13.27;;
42124;SDS011;27787;44.594;11.046;2023-05-07T08:41:48;19.92;;;12.38;;
42124;SDS011;27787;44.594;11.046;2023-05-07T08:44:33;17.17;;;11.85;;
42124;SDS011;27787;44.594;11.046;2023-05-07T08:47:18;21.67;;;12.52;;
42124;SDS011;27787;44.594;11.046;2023-05-07T08:52:49;17.30;;;11.95;;
42124;SDS011;27787;44.594;11.046;2023-05-07T08:55:35;18.52;;;12.80;;
42124;SDS011;27787;44.594;11.046;2023-05-07T08:58:19;19.38;;;11.82;;
42124;SDS011;27787;44.594;11.046;2023-05-07T09:01:07;18.55;;;10.95;;
42124;SDS011;27787;44.594;11.046;2023-05-07T09:03:54;19.48;;;11.15;;
42124;SDS011;27787;44.594;11.046;2023-05-07T09:06:40;20.30;;;12.10;;
42124;SDS011;27787;44.594;11.046;2023-05-07T09:09:27;14.50;;;9.63;;
42124;SDS011;27787;44.594;11.046;2023-05-07T09:14:58;16.38;;;9.88;;
42124;SDS011;27787;44.594;11.046;2023-05-07T09:17:44;20.98;;;10.52;;
42124;SDS011;27787;44.594;11.046;2023-05-07T09:20:30;20.60;;;11.48;;
42124;SDS011;27787;44.594;11.046;2023-05-07T09:23:14;18.17;;;11.50;;
42124;SDS011;27787;44.594;11.046;2023-05-07T09:26:03;21.92;;;11.82;;
42124;SDS011;27787;44.594;11.046;2023-05-07T09:29:15;22.52;;;12.77;;
42124;SDS011;27787;44.594;11.046;2023-05-07T09:32:21;18.92;;;12.23;;
42124;SDS011;27787;44.594;11.046;2023-05-07T09:38:00;18.10;;;11.10;;
42124;SDS011;27787;44.594;11.046;2023-05-07T09:40:46;19.42;;;12.40;;
42124;SDS011;27787;44.594;11.046;2023-05-07T09:43:37;22.38;;;12.27;;
42124;SDS011;27787;44.594;11.046;2023-05-07T09:46:30;15.68;;;10.88;;
42124;SDS011;27787;44.594;11.046;2023-05-07T09:49:21;20.15;;;11.57;;
42124;SDS011;27787;44.594;11.046;2023-05-07T09:52:10;18.08;;;11.63;;
42124;SDS011;27787;44.594;11.046;2023-05-07T09:55:04;14.68;;;9.82;;
42124;SDS011;27787;44.594;11.046;2023-05-07T09:57:52;17.88;;;11.82;;
42124;SDS011;27787;44.594;11.046;2023-05-07T10:00:38;18.95;;;11.05;;
42124;SDS011;27787;44.594;11.046;2023-05-07T10:03:28;18.50;;;11.77;;
42124;SDS011;27787;44.594;11.046;2023-05-07T10:06:24;16.70;;;10.50;;
42124;SDS011;27787;44.594;11.046;2023-05-07T10:09:09;21.30;;;12.43;;
42124;SDS011;27787;44.594;11.046;2023-05-07T10:11:55;14.30;;;10.38;;
42124;SDS011;27787;44.594;11.046;2023-05-07T10:14:40;17.75;;;11.27;;
42124;SDS011;27787;44.594;11.046;2023-05-07T10:17:25;16.90;;;11.57;;
42124;SDS011;27787;44.594;11.046;2023-05-07T10:20:10;20.38;;;11.27;;
42124;SDS011;27787;44.594;11.046;2023-05-07T10:22:57;14.23;;;9.80;;
42124;SDS011;27787;44.594;11.046;2023-05-07T10:25:50;16.15;;;10.38;;
42124;SDS011;27787;44.594;11.046;2023-05-07T10:28:40;16.40;;;9.90;;
42124;SDS011;27787;44.594;11.046;2023-05-07T10:34:32;14.23;;;8.93;;
42124;SDS011;27787;44.594;11.046;2023-05-07T10:37:21;13.30;;;7.63;;
42124;SDS011;27787;44.594;11.046;2023-05-07T10:40:07;17.55;;;8.13;;
42124;SDS011;27787;44.594;11.046;2023-05-07T10:42:56;10.88;;;7.45;;
42124;SDS011;27787;44.594;11.046;2023-05-07T10:52:20;7.65;;;5.18;;
42124;SDS011;27787;44.594;11.046;2023-05-07T10:55:18;10.30;;;6.55;;
42124;SDS011;27787;44.594;11.046;2023-05-07T10:58:41;12.02;;;6.65;;
42124;SDS011;27787;44.594;11.046;2023-05-07T11:01:49;12.50;;;6.05;;
42124;SDS011;27787;44.594;11.046;2023-05-07T11:05:18;11.82;;;5.60;;
42124;SDS011;27787;44.594;11.046;2023-05-07T11:08:09;7.00;;;4.57;;
42124;SDS011;27787;44.594;11.046;2023-05-07T11:11:07;7.25;;;4.18;;
42124;SDS011;27787;44.594;11.046;2023-05-07T11:14:04;7.10;;;4.28;;
42124;SDS011;27787;44.594;11.046;2023-05-07T11:17:06;4.53;;;3.47;;
42124;SDS011;27787;44.594;11.046;2023-05-07T11:19:52;5.63;;;3.28;;
42124;SDS011;27787;44.594;11.046;2023-05-07T11:25:43;4.18;;;2.90;;
42124;SDS011;27787;44.594;11.046;2023-05-07T11:28:42;4.05;;;2.55;;
42124;SDS011;27787;44.594;11.046;2023-05-07T11:31:53;5.68;;;3.60;;
42124;SDS011;27787;44.594;11.046;2023-05-07T11:34:47;6.25;;;4.32;;
42124;SDS011;27787;44.594;11.046;2023-05-07T11:37:37;5.93;;;4.20;;
42124;SDS011;27787;44.594;11.046;2023-05-07T11:40:33;7.95;;;4.07;;
42124;SDS011;27787;44.594;11.046;2023-05-07T11:43:37;5.55;;;3.70;;
42124;SDS011;27787;44.594;11.046;2023-05-07T11:46:24;5.72;;;3.20;;
42124;SDS011;27787;44.594;11.046;2023-05-07T11:49:08;4.20;;;2.87;;
42124;SDS011;27787;44.594;11.046;2023-05-07T11:51:53;3.42;;;2.50;;
42124;SDS011;27787;44.594;11.046;2023-05-07T11:54:37;3.87;;;2.73;;
42124;SDS011;27787;44.594;11.046;2023-05-07T11:57:32;6.50;;;2.65;;
42124;SDS011;27787;44.594;11.046;2023-05-07T12:00:28;4.28;;;2.38;;
42124;SDS011;27787;44.594;11.046;2023-05-07T12:03:12;4.30;;;2.60;;
42124;SDS011;27787;44.594;11.046;2023-05-07T12:05:57;3.78;;;2.20;;
42124;SDS011;27787;44.594;11.046;2023-05-07T12:08:41;11.35;;;3.42;;
42124;SDS011;27787;44.594;11.046;2023-05-07T12:11:27;5.32;;;2.75;;
42124;SDS011;27787;44.594;11.046;2023-05-07T12:14:11;6.22;;;2.75;;
42124;SDS011;27787;44.594;11.046;2023-05-07T12:16:55;4.05;;;2.90;;
42124;SDS011;27787;44.594;11.046;2023-05-07T12:19:41;4.28;;;3.03;;
42124;SDS011;27787;44.594;11.046;2023-05-07T12:22:28;3.42;;;2.47;;
42124;SDS011;27787;44.594;11.046;2023-05-07T12:25:12;4.33;;;2.63;;
42124;SDS011;27787;44.594;11.046;2023-05-07T12:28:03;4.28;;;2.80;;
42124;SDS011;27787;44.594;11.046;2023-05-07T12:30:50;5.65;;;2.30;;
42124;SDS011;27787;44.594;11.046;2023-05-07T12:33:35;3.40;;;2.15;;
42124;SDS011;27787;44.594;11.046;2023-05-07T12:36:20;4.07;;;2.53;;
42124;SDS011;27787;44.594;11.046;2023-05-07T12:39:08;3.88;;;2.53;;
42124;SDS011;27787;44.594;11.046;2023-05-07T12:41:56;3.50;;;2.40;;
42124;SDS011;27787;44.594;11.046;2023-05-07T12:44:46;5.75;;;2.45;;
42124;SDS011;27787;44.594;11.046;2023-05-07T12:47:31;5.87;;;2.97;;
42124;SDS011;27787;44.594;11.046;2023-05-07T12:50:16;6.03;;;2.58;;
42124;SDS011;27787;44.594;11.046;2023-05-07T12:53:00;4.60;;;2.78;;
42124;SDS011;27787;44.594;11.046;2023-05-07T12:55:51;5.85;;;2.85;;
42124;SDS011;27787;44.594;11.046;2023-05-07T12:58:36;18.67;;;3.10;;
42124;SDS011;27787;44.594;11.046;2023-05-07T13:01:20;15.32;;;4.47;;
42124;SDS011;27787;44.594;11.046;2023-05-07T13:04:05;13.75;;;4.55;;
42124;SDS011;27787;44.594;11.046;2023-05-07T13:06:49;6.40;;;2.80;;
42124;SDS011;27787;44.594;11.046;2023-05-07T13:09:33;4.70;;;2.33;;
42124;SDS011;27787;44.594;11.046;2023-05-07T13:12:18;3.83;;;2.45;;
42124;SDS011;27787;44.594;11.046;2023-05-07T13:15:05;4.03;;;2.15;;
42124;SDS011;27787;44.594;11.046;2023-05-07T13:17:56;4.25;;;2.28;;
42124;SDS011;27787;44.594;11.046;2023-05-07T13:20:41;6.38;;;2.55;;
42124;SDS011;27787;44.594;11.046;2023-05-07T13:23:30;2.85;;;2.40;;
42124;SDS011;27787;44.594;11.046;2023-05-07T13:26:16;3.42;;;2.20;;
42124;SDS011;27787;44.594;11.046;2023-05-07T13:29:07;5.32;;;2.70;;
42124;SDS011;27787;44.594;11.046;2023-05-07T13:31:53;3.28;;;2.53;;
42124;SDS011;27787;44.594;11.046;2023-05-07T13:34:37;6.63;;;2.90;;
42124;SDS011;27787;44.594;11.046;2023-05-07T13:37:21;3.75;;;2.60;;
42124;SDS011;27787;44.594;11.046;2023-05-07T13:40:05;4.03;;;2.70;;
42124;SDS011;27787;44.594;11.046;2023-05-07T13:42:50;5.18;;;3.10;;
42124;SDS011;27787;44.594;11.046;2023-05-07T13:45:34;5.43;;;2.72;;
42124;SDS011;27787;44.594;11.046;2023-05-07T13:48:19;4.75;;;2.88;;
42124;SDS011;27787;44.594;11.046;2023-05-07T13:51:02;6.25;;;2.72;;
42124;SDS011;27787;44.594;11.046;2023-05-07T13:53:46;4.22;;;2.70;;
42124;SDS011;27787;44.594;11.046;2023-05-07T13:56:30;4.10;;;2.75;;
42124;SDS011;27787;44.594;11.046;2023-05-07T13:59:17;4.80;;;2.67;;
42124;SDS011;27787;44.594;11.046;2023-05-07T14:04:47;4.22;;;3.08;;
42124;SDS011;27787;44.594;11.046;2023-05-07T14:07:34;4.55;;;2.88;;
42124;SDS011;27787;44.594;11.046;2023-05-07T14:10:18;5.50;;;3.25;;
42124;SDS011;27787;44.594;11.046;2023-05-07T14:13:02;4.75;;;3.28;;
42124;SDS011;27787;44.594;11.046;2023-05-07T14:15:47;5.78;;;3.38;;
42124;SDS011;27787;44.594;11.046;2023-05-07T14:18:32;5.55;;;3.88;;
42124;SDS011;27787;44.594;11.046;2023-05-07T14:21:18;4.78;;;3.50;;
42124;SDS011;27787;44.594;11.046;2023-05-07T14:24:02;8.30;;;3.92;;
42124;SDS011;27787;44.594;11.046;2023-05-07T14:26:46;10.30;;;3.55;;
42124;SDS011;27787;44.594;11.046;2023-05-07T14:29:30;4.78;;;3.40;;
42124;SDS011;27787;44.594;11.046;2023-05-07T14:32:14;4.63;;;3.13;;
42124;SDS011;27787;44.594;11.046;2023-05-07T14:34:59;9.40;;;2.85;;
42124;SDS011;27787;44.594;11.046;2023-05-07T14:37:43;7.50;;;3.40;;
42124;SDS011;27787;44.594;11.046;2023-05-07T14:40:28;4.25;;;3.10;;
42124;SDS011;27787;44.594;11.046;2023-05-07T14:43:12;3.60;;;2.80;;
42124;SDS011;27787;44.594;11.046;2023-05-07T14:45:56;4.38;;;3.35;;
42124;SDS011;27787;44.594;11.046;2023-05-07T14:48:40;3.55;;;2.80;;
42124;SDS011;27787;44.594;11.046;2023-05-07T14:51:24;7.65;;;3.03;;
42124;SDS011;27787;44.594;11.046;2023-05-07T14:54:10;7.43;;;3.22;;
42124;SDS011;27787;44.594;11.046;2023-05-07T14:56:54;4.25;;;3.05;;
42124;SDS011;27787;44.594;11.046;2023-05-07T14:59:39;3.78;;;3.05;;
42124;SDS011;27787;44.594;11.046;2023-05-07T15:02:24;5.88;;;3.50;;
42124;SDS011;27787;44.594;11.046;2023-05-07T15:05:09;4.97;;;3.60;;
42124;SDS011;27787;44.594;11.046;2023-05-07T15:07:53;5.60;;;3.22;;
42124;SDS011;27787;44.594;11.046;2023-05-07T15:10:37;5.50;;;3.50;;
42124;SDS011;27787;44.594;11.046;2023-05-07T15:13:24;5.53;;;3.63;;
42124;SDS011;27787;44.594;11.046;2023-05-07T15:16:08;3.92;;;3.20;;
42124;SDS011;27787;44.594;11.046;2023-05-07T15:18:52;7.20;;;4.13;;
42124;SDS011;27787;44.594;11.046;2023-05-07T15:21:37;8.70;;;3.40;;
42124;SDS011;27787;44.594;11.046;2023-05-07T15:24:21;5.18;;;3.35;;
42124;SDS011;27787;44.594;11.046;2023-05-07T15:27:14;5.55;;;3.35;;
42124;SDS011;27787;44.594;11.046;2023-05-07T15:30:00;4.57;;;3.30;;
42124;SDS011;27787;44.594;11.046;2023-05-07T15:32:44;6.97;;;3.78;;
42124;SDS011;27787;44.594;11.046;2023-05-07T15:35:29;4.65;;;3.40;;
42124;SDS011;27787;44.594;11.046;2023-05-07T15:38:13;4.68;;;3.42;;
42124;SDS011;27787;44.594;11.046;2023-05-07T15:40:57;5.53;;;3.15;;
42124;SDS011;27787;44.594;11.046;2023-05-07T15:43:46;4.70;;;3.17;;
42124;SDS011;27787;44.594;11.046;2023-05-07T15:46:31;4.45;;;3.45;;
42124;SDS011;27787;44.594;11.046;2023-05-07T15:49:16;4.35;;;3.30;;
42124;SDS011;27787;44.594;11.046;2023-05-07T15:52:00;6.55;;;3.70;;
42124;SDS011;27787;44.594;11.046;2023-05-07T15:54:44;5.22;;;3.45;;
42124;SDS011;27787;44.594;11.046;2023-05-07T15:57:29;7.93;;;3.83;;
42124;SDS011;27787;44.594;11.046;2023-05-07T16:00:14;4.65;;;3.40;;
42124;SDS011;27787;44.594;11.046;2023-05-07T16:03:01;4.60;;;3.40;;
42124;SDS011;27787;44.594;11.046;2023-05-07T16:05:45;6.30;;;3.35;;
42124;SDS011;27787;44.594;11.046;2023-05-07T16:08:30;6.70;;;3.45;;
42124;SDS011;27787;44.594;11.046;2023-05-07T16:11:14;4.18;;;3.30;;
42124;SDS011;27787;44.594;11.046;2023-05-07T16:13:58;4.55;;;3.50;;
42124;SDS011;27787;44.594;11.046;2023-05-07T16:16:43;5.13;;;3.67;;
42124;SDS011;27787;44.594;11.046;2023-05-07T16:19:28;7.18;;;4.18;;
42124;SDS011;27787;44.594;11.046;2023-05-07T16:22:12;6.53;;;3.33;;
42124;SDS011;27787;44.594;11.046;2023-05-07T16:24:56;7.72;;;3.85;;
42124;SDS011;27787;44.594;11.046;2023-05-07T16:27:41;9.32;;;3.70;;
42124;SDS011;27787;44.594;11.046;2023-05-07T16:30:25;7.47;;;3.38;;
42124;SDS011;27787;44.594;11.046;2023-05-07T16:33:09;7.68;;;3.55;;
42124;SDS011;27787;44.594;11.046;2023-05-07T16:35:53;4.40;;;3.47;;
42124;SDS011;27787;44.594;11.046;2023-05-07T16:38:38;5.60;;;3.55;;
42124;SDS011;27787;44.594;11.046;2023-05-07T16:41:22;4.35;;;3.35;;
42124;SDS011;27787;44.594;11.046;2023-05-07T16:44:06;6.47;;;3.53;;
42124;SDS011;27787;44.594;11.046;2023-05-07T16:46:51;5.80;;;3.70;;